This is the latest recevied weather packets stored in our database for station/object BV5AB-33. If no packets are shown the sender has not sent any weather packets the latest 10 day(s).
| Time | Temp. | Humidity | Pressure | Rain* | Wind** | Luminosity | Snow |
|---|---|---|---|---|---|---|---|
| 1777624805 | 28.33° C | 56% | 982.5 hPa | 0 mm | - | - | - |
| 1777623005 | 28.89° C | 55% | 982.6 hPa | 0 mm | - | - | - |
| 1777621804 | 28.89° C | 54% | 982.7 hPa | 0 mm | - | - | - |
| 1777621205 | 28.89° C | 54% | 982.9 hPa | 0 mm | - | - | - |
| 1777620305 | 29.44° C | 53% | 983.1 hPa | 0 mm | - | - | - |
| 1777620005 | 29.44° C | 53% | 983 hPa | 0 mm | - | - | - |
| 1777619704 | 29.44° C | 53% | 982.9 hPa | 0 mm | - | - | - |
| 1777619105 | 29.44° C | 53% | 983.2 hPa | 0 mm | - | - | - |
| 1777615505 | 28.33° C | 54% | 982.9 hPa | 0 mm | - | - | - |
| 1777614605 | 28.33° C | 55% | 983.1 hPa | 0 mm | - | - | - |
| 1777611305 | 28.89° C | 53% | 984 hPa | 0 mm | - | - | - |
| 1777608905 | 28.33° C | 54% | 984.4 hPa | 0 mm | - | - | - |
| 1777606205 | 29.44° C | 54% | 984.7 hPa | 0 mm | - | - | - |
| 1777601706 | 28.33° C | 56% | 985 hPa | 0 mm | - | - | - |
| 1777601405 | 28.33° C | 56% | 985.3 hPa | 0 mm | - | - | - |
| 1777599305 | 28.33° C | 58% | 984.9 hPa | 0 mm | - | - | - |
| 1777598705 | 27.22° C | 63% | 984.9 hPa | 0 mm | - | - | - |
| 1777596606 | 25.56° C | 67% | 984.7 hPa | 0 mm | - | - | - |
| 1777593906 | 25° C | 68% | 984.7 hPa | 0 mm | - | - | - |
| 1777593006 | 23.89° C | 70% | 984.7 hPa | 0 mm | - | - | - |
| 1777591505 | 23.33° C | 70% | 984.6 hPa | 0 mm | - | - | - |
| 1777591205 | 23.33° C | 70% | 984.4 hPa | 0 mm | - | - | - |
| 1777590306 | 22.78° C | 72% | 984.4 hPa | 0 mm | - | - | - |
| 1777588206 | 21.67° C | 79% | 984.2 hPa | 0 mm | - | - | - |
| 1777586705 | 21.11° C | 80% | 983.9 hPa | 25.91 mm | - | - | - |
* Rain latest hour (hover to see other rain measurements)
** Current wind speed in m/s (hover to see current wind gust speed)